Time;durP1;ratioP1;P1;durP2;ratioP2;P2;SDS_P1;SDS_P2;PMS_P1;PMS_P2;Temp;Humidity;BMP_temperature;BMP_pressure;BME280_temperature;BME280_humidity;BME280_pressure;Samples;Min_cycle;Max_cycle;Signal;HPM_P1;HPM_P2
2023/05/29 00:01:24;;;;;;;4.93;4.47;;;;;;;;;;4994005;28;20053;-75
2023/05/29 00:03:50;;;;;;;7.07;4.25;;;;;;;;;;5011488;28;20041;-75
2023/05/29 00:06:16;;;;;;;9.20;4.70;;;;;;;;;;5011346;28;20042;-75
2023/05/29 00:08:42;;;;;;;13.65;4.07;;;;;;;;;;4994077;28;20060;-75
2023/05/29 00:11:08;;;;;;;4.88;4.13;;;;;;;;;;4994297;28;20057;-75
2023/05/29 00:13:34;;;;;;;8.68;4.72;;;;;;;;;;5011768;28;20597;-74
2023/05/29 00:16:01;;;;;;;9.30;5.40;;;;;;;;;;4978908;28;20100;-75
2023/05/29 00:18:27;;;;;;;5.28;4.43;;;;;;;;;;4993925;28;20422;-75
2023/05/29 00:20:53;;;;;;;9.73;4.80;;;;;;;;;;4978896;28;20684;-75
2023/05/29 00:23:19;;;;;;;6.43;4.47;;;;;;;;;;4994294;28;20038;-74
2023/05/29 00:25:45;;;;;;;11.15;4.70;;;;;;;;;;4977636;28;20061;-76
2023/05/29 00:28:12;;;;;;;7.47;4.47;;;;;;;;;;5011301;28;20042;-75
2023/05/29 00:30:38;;;;;;;8.25;4.43;;;;;;;;;;4961417;28;20054;-75
2023/05/29 00:33:20;;;;;;;7.82;4.60;;;;;;;;;;5011250;28;20042;-75
2023/05/29 00:35:46;;;;;;;14.40;4.68;;;;;;;;;;5011311;28;20092;-75
2023/05/29 00:38:12;;;;;;;8.80;4.80;;;;;;;;;;4993496;28;20092;-75
2023/05/29 00:40:39;;;;;;;11.57;6.35;;;;;;;;;;5011132;28;20524;-76
2023/05/29 00:43:05;;;;;;;7.18;4.80;;;;;;;;;;4993811;28;20430;-75
2023/05/29 00:45:35;;;;;;;7.13;4.82;;;;;;;;;;5010854;28;20080;-74
2023/05/29 00:48:05;;;;;;;20.50;5.28;;;;;;;;;;4993624;28;20543;-75
2023/05/29 00:50:31;;;;;;;14.27;4.50;;;;;;;;;;4977033;28;20050;-75
2023/05/29 00:52:57;;;;;;;8.43;4.90;;;;;;;;;;4993480;28;20048;-75
2023/05/29 00:55:23;;;;;;;8.23;4.70;;;;;;;;;;4978874;28;20054;-75
2023/05/29 00:57:49;;;;;;;8.85;4.68;;;;;;;;;;4967049;28;20100;-74
2023/05/29 01:00:15;;;;;;;10.02;4.85;;;;;;;;;;5021163;28;20045;-74
2023/05/29 01:02:44;;;;;;;9.57;4.63;;;;;;;;;;4983617;28;20433;-75
2023/05/29 01:05:11;;;;;;;11.07;5.00;;;;;;;;;;5016031;28;20099;-75
2023/05/29 01:07:38;;;;;;;5.45;4.60;;;;;;;;;;5004652;28;20065;-75
2023/05/29 01:10:05;;;;;;;13.32;4.75;;;;;;;;;;5023104;28;20080;-75
2023/05/29 01:12:41;;;;;;;10.25;5.10;;;;;;;;;;5003144;28;20042;-75
2023/05/29 01:15:07;;;;;;;5.13;4.40;;;;;;;;;;4997224;28;20480;-75
2023/05/29 01:17:36;;;;;;;8.00;4.43;;;;;;;;;;5010312;28;20038;-75
2023/05/29 01:20:05;;;;;;;5.40;4.22;;;;;;;;;;5010508;28;20069;-75
2023/05/29 01:22:50;;;;;;;8.38;4.45;;;;;;;;;;4992809;28;20403;-77
2023/05/29 01:25:19;;;;;;;11.77;4.30;;;;;;;;;;5008942;28;20061;-75
2023/05/29 01:27:47;;;;;;;6.55;5.30;;;;;;;;;;4976934;28;20045;-75
2023/05/29 01:30:14;;;;;;;9.38;4.78;;;;;;;;;;5009062;28;20136;-76
2023/05/29 01:32:40;;;;;;;7.85;5.28;;;;;;;;;;4992906;28;20660;-76
2023/05/29 01:35:06;;;;;;;6.82;4.13;;;;;;;;;;5010301;28;20069;-75
2023/05/29 01:37:32;;;;;;;7.10;3.70;;;;;;;;;;4992476;28;20042;-75
2023/05/29 01:39:59;;;;;;;8.07;4.28;;;;;;;;;;5008922;28;20052;-75
2023/05/29 01:42:25;;;;;;;5.43;4.10;;;;;;;;;;4976607;28;20125;-75
2023/05/29 01:44:51;;;;;;;6.63;4.32;;;;;;;;;;5010144;28;20049;-75
2023/05/29 01:47:17;;;;;;;9.45;4.03;;;;;;;;;;4992570;28;20038;-74
2023/05/29 01:49:43;;;;;;;5.88;4.28;;;;;;;;;;5009090;28;20062;-75
2023/05/29 01:52:09;;;;;;;10.20;4.40;;;;;;;;;;4992875;28;20112;-74
2023/05/29 01:54:35;;;;;;;12.20;4.07;;;;;;;;;;4976133;28;20050;-75
2023/05/29 01:57:02;;;;;;;4.93;3.63;;;;;;;;;;4995218;28;20430;-76
2023/05/29 01:59:29;;;;;;;8.77;3.65;;;;;;;;;;4995492;28;20053;-75
2023/05/29 02:01:54;;;;;;;6.75;4.15;;;;;;;;;;5012105;28;20124;-75
2023/05/29 02:04:20;;;;;;;4.50;4.10;;;;;;;;;;5029396;28;20045;-75
2023/05/29 02:06:46;;;;;;;8.73;3.85;;;;;;;;;;5029716;28;20042;-76
2023/05/29 02:09:13;;;;;;;5.15;3.70;;;;;;;;;;5029626;28;20111;-76
2023/05/29 02:11:44;;;;;;;11.27;3.67;;;;;;;;;;4995742;28;20103;-75
2023/05/29 02:14:10;;;;;;;4.55;4.15;;;;;;;;;;4996601;28;20525;-75
2023/05/29 02:16:36;;;;;;;12.70;3.88;;;;;;;;;;5011946;28;20040;-76
2023/05/29 02:19:03;;;;;;;5.70;4.20;;;;;;;;;;5011997;28;20041;-75
2023/05/29 02:21:49;;;;;;;5.15;4.13;;;;;;;;;;4987894;28;20068;-75
2023/05/29 02:24:15;;;;;;;6.30;3.72;;;;;;;;;;5012043;28;20075;-75
2023/05/29 02:26:42;;;;;;;6.70;4.18;;;;;;;;;;5011995;28;20049;-74
2023/05/29 02:29:08;;;;;;;7.65;3.95;;;;;;;;;;5032277;28;20529;-75
2023/05/29 02:31:34;;;;;;;8.93;3.92;;;;;;;;;;5034305;28;20045;-75
2023/05/29 02:34:00;;;;;;;7.68;4.00;;;;;;;;;;4999625;28;20468;-75
2023/05/29 02:36:27;;;;;;;5.45;3.63;;;;;;;;;;4999608;28;20048;-75
2023/05/29 02:38:54;;;;;;;4.40;3.40;;;;;;;;;;5033192;28;20045;-75
2023/05/29 02:41:20;;;;;;;8.23;3.90;;;;;;;;;;5032767;28;20041;-75
2023/05/29 02:43:46;;;;;;;7.45;3.72;;;;;;;;;;5033095;28;20267;-76
2023/05/29 02:46:12;;;;;;;6.35;3.97;;;;;;;;;;5033353;28;20615;-76
2023/05/29 02:48:39;;;;;;;7.60;3.88;;;;;;;;;;5015385;28;20045;-74
2023/05/29 02:51:05;;;;;;;8.25;4.10;;;;;;;;;;5031685;28;20053;-76
2023/05/29 02:53:31;;;;;;;6.80;3.78;;;;;;;;;;4998651;28;20170;-75
2023/05/29 02:55:57;;;;;;;6.57;3.80;;;;;;;;;;5032697;28;20103;-76
2023/05/29 02:58:23;;;;;;;3.45;3.15;;;;;;;;;;5003199;28;20062;-74
2023/05/29 03:00:50;;;;;;;5.47;3.80;;;;;;;;;;5000986;28;20095;-75
2023/05/29 03:03:16;;;;;;;5.10;3.58;;;;;;;;;;5012076;28;20457;-75
2023/05/29 03:05:42;;;;;;;5.82;3.70;;;;;;;;;;5012598;28;20104;-75
2023/05/29 03:08:08;;;;;;;7.38;3.72;;;;;;;;;;4979330;28;20087;-76
2023/05/29 03:10:34;;;;;;;7.38;3.60;;;;;;;;;;4994959;28;20062;-77
2023/05/29 03:13:00;;;;;;;4.88;3.55;;;;;;;;;;5012986;28;20509;-75
2023/05/29 03:15:26;;;;;;;8.30;3.53;;;;;;;;;;5012653;28;20528;-75
2023/05/29 03:17:52;;;;;;;3.75;3.10;;;;;;;;;;5012952;28;20065;-75
2023/05/29 03:20:23;;;;;;;8.85;4.80;;;;;;;;;;4995143;28;20132;-75
2023/05/29 03:22:53;;;;;;;5.13;3.22;;;;;;;;;;5011821;28;20179;-75
2023/05/29 03:25:19;;;;;;;6.30;3.83;;;;;;;;;;4963132;28;20046;-76
2023/05/29 03:27:45;;;;;;;7.43;3.67;;;;;;;;;;4995100;28;20046;-75
2023/05/29 03:30:16;;;;;;;7.35;3.70;;;;;;;;;;4995023;28;20464;-76
2023/05/29 03:32:42;;;;;;;6.15;3.42;;;;;;;;;;4994999;28;20581;-75
2023/05/29 03:35:09;;;;;;;5.97;3.20;;;;;;;;;;5012478;28;20426;-75
2023/05/29 03:37:37;;;;;;;3.85;3.55;;;;;;;;;;5011088;28;20583;-75
2023/05/29 03:40:04;;;;;;;9.05;4.57;;;;;;;;;;5010167;28;20374;-75
2023/05/29 03:42:31;;;;;;;7.78;3.38;;;;;;;;;;5010668;28;20045;-77
2023/05/29 03:44:57;;;;;;;4.97;3.50;;;;;;;;;;4946286;28;20081;-76
2023/05/29 03:47:23;;;;;;;10.80;4.35;;;;;;;;;;4994407;28;20045;-76
2023/05/29 03:49:51;;;;;;;7.38;3.60;;;;;;;;;;4994371;28;20103;-76
2023/05/29 03:52:17;;;;;;;6.63;4.00;;;;;;;;;;4978906;28;20075;-76
2023/05/29 03:54:44;;;;;;;6.07;3.47;;;;;;;;;;5010333;28;20049;-77
2023/05/29 03:57:11;;;;;;;6.07;3.85;;;;;;;;;;4994070;28;20052;-76
2023/05/29 03:59:37;;;;;;;7.63;3.40;;;;;;;;;;5010640;28;20132;-77
2023/05/29 04:02:04;;;;;;;7.30;3.20;;;;;;;;;;4994575;28;20041;-76
2023/05/29 04:04:30;;;;;;;5.22;3.20;;;;;;;;;;5011975;28;20041;-75
2023/05/29 04:06:56;;;;;;;11.65;3.70;;;;;;;;;;4996052;28;20564;-76
2023/05/29 04:09:22;;;;;;;6.55;3.38;;;;;;;;;;4995999;28;20054;-75
2023/05/29 04:11:51;;;;;;;5.78;2.90;;;;;;;;;;5015372;28;20038;-76
2023/05/29 04:14:17;;;;;;;3.05;2.85;;;;;;;;;;4982890;28;20042;-76
2023/05/29 04:16:44;;;;;;;18.45;3.28;;;;;;;;;;4984991;28;20219;-76
2023/05/29 04:19:10;;;;;;;3.30;3.00;;;;;;;;;;4972688;28;20065;-78
2023/05/29 04:21:37;;;;;;;5.10;2.90;;;;;;;;;;5019879;28;20053;-76
2023/05/29 04:24:03;;;;;;;4.32;3.33;;;;;;;;;;4979439;28;20588;-76
2023/05/29 04:26:29;;;;;;;9.23;2.85;;;;;;;;;;5011452;28;20060;-75
2023/05/29 04:28:58;;;;;;;3.33;2.95;;;;;;;;;;4993634;28;20034;-76
2023/05/29 04:31:25;;;;;;;5.32;3.45;;;;;;;;;;5010695;28;20140;-76
2023/05/29 04:33:56;;;;;;;8.73;3.47;;;;;;;;;;5009682;28;20037;-75
2023/05/29 04:36:26;;;;;;;4.20;3.80;;;;;;;;;;4961883;28;20042;-76
2023/05/29 04:39:00;;;;;;;5.10;3.83;;;;;;;;;;4993528;28;20042;-76
2023/05/29 04:41:30;;;;;;;5.47;3.10;;;;;;;;;;4995676;28;20057;-75
2023/05/29 04:43:58;;;;;;;5.45;2.90;;;;;;;;;;5022917;28;20041;-75
2023/05/29 04:46:29;;;;;;;3.20;2.88;;;;;;;;;;5012638;28;20133;-75
2023/05/29 04:48:54;;;;;;;2.70;2.50;;;;;;;;;;4993840;28;20095;-75
2023/05/29 04:51:21;;;;;;;3.28;2.10;;;;;;;;;;5010269;28;20518;-76
2023/05/29 04:53:48;;;;;;;2.30;2.10;;;;;;;;;;4993195;28;20049;-76
2023/05/29 04:56:14;;;;;;;3.78;1.80;;;;;;;;;;5009702;28;20050;-79
2023/05/29 04:58:41;;;;;;;4.55;2.28;;;;;;;;;;5009009;28;20398;-77
2023/05/29 05:01:14;;;;;;;2.92;2.17;;;;;;;;;;4996448;28;20053;-77
2023/05/29 05:03:41;;;;;;;8.75;2.30;;;;;;;;;;5012591;28;20029;-77
2023/05/29 05:06:07;;;;;;;4.57;2.15;;;;;;;;;;4996153;28;20076;-78
2023/05/29 05:08:33;;;;;;;4.25;2.00;;;;;;;;;;4996470;28;20044;-77
2023/05/29 05:11:00;;;;;;;3.72;2.28;;;;;;;;;;5030057;28;20240;-77
2023/05/29 05:13:26;;;;;;;4.75;2.17;;;;;;;;;;5030281;28;20387;-77
2023/05/29 05:15:52;;;;;;;3.63;2.10;;;;;;;;;;5012198;28;20056;-77
2023/05/29 05:18:19;;;;;;;5.90;2.30;;;;;;;;;;5012733;28;20108;-77
2023/05/29 05:20:51;;;;;;;6.05;2.13;;;;;;;;;;5012086;28;20056;-77
2023/05/29 05:23:17;;;;;;;3.80;1.90;;;;;;;;;;5012644;28;20041;-76
2023/05/29 05:25:43;;;;;;;4.50;2.00;;;;;;;;;;5012318;28;20061;-76
2023/05/29 05:28:10;;;;;;;2.28;1.95;;;;;;;;;;5012568;28;20123;-77
2023/05/29 05:30:36;;;;;;;8.35;2.03;;;;;;;;;;5012130;28;20050;-77
2023/05/29 05:33:03;;;;;;;3.67;2.13;;;;;;;;;;5028806;28;20037;-77
2023/05/29 05:35:29;;;;;;;2.75;2.00;;;;;;;;;;5012306;28;20102;-77
2023/05/29 05:37:59;;;;;;;3.00;1.90;;;;;;;;;;5012442;28;20549;-77
2023/05/29 05:40:25;;;;;;;8.70;2.53;;;;;;;;;;4995854;28;20041;-77
2023/05/29 05:42:57;;;;;;;2.70;2.30;;;;;;;;;;5012371;28;20191;-77
2023/05/29 05:45:42;;;;;;;6.68;2.20;;;;;;;;;;5012087;28;20057;-77
2023/05/29 05:48:10;;;;;;;4.85;1.98;;;;;;;;;;5012604;28;20135;-77
2023/05/29 05:50:36;;;;;;;5.05;2.55;;;;;;;;;;5011780;28;20119;-77
2023/05/29 05:53:02;;;;;;;5.28;2.33;;;;;;;;;;4995936;28;20044;-77
2023/05/29 05:55:28;;;;;;;7.85;2.53;;;;;;;;;;5012265;28;20049;-77
2023/05/29 05:57:55;;;;;;;5.22;2.35;;;;;;;;;;4995375;28;20076;-77
2023/05/29 06:00:23;;;;;;;2.88;2.00;;;;;;;;;;5012185;28;20053;-77
2023/05/29 06:02:53;;;;;;;4.38;1.90;;;;;;;;;;5029969;28;20048;-77
2023/05/29 06:05:34;;;;;;;3.33;2.05;;;;;;;;;;5015890;28;20123;-77
2023/05/29 06:08:00;;;;;;;4.03;1.50;;;;;;;;;;5016027;28;20587;-78
2023/05/29 06:10:27;;;;;;;1.75;1.20;;;;;;;;;;5016135;28;20090;-77
2023/05/29 06:12:53;;;;;;;2.30;1.50;;;;;;;;;;4999353;28;20033;-77
2023/05/29 06:15:25;;;;;;;1.42;1.33;;;;;;;;;;5015777;28;20045;-78
2023/05/29 06:17:52;;;;;;;1.30;1.20;;;;;;;;;;5016112;28;20087;-78
2023/05/29 06:20:19;;;;;;;2.28;1.00;;;;;;;;;;5033652;28;20484;-77
2023/05/29 06:22:50;;;;;;;1.15;1.08;;;;;;;;;;4999630;28;20497;-77
2023/05/29 06:25:18;;;;;;;1.20;1.13;;;;;;;;;;5033408;28;20065;-77
2023/05/29 06:27:44;;;;;;;1.38;1.38;;;;;;;;;;5016250;28;20041;-77
2023/05/29 06:30:11;;;;;;;1.20;1.20;;;;;;;;;;5001756;28;20091;-76
2023/05/29 06:32:38;;;;;;;1.23;1.10;;;;;;;;;;5015755;28;20048;-76
2023/05/29 06:35:06;;;;;;;0.93;0.93;;;;;;;;;;5015580;28;20042;-77
2023/05/29 06:37:32;;;;;;;2.22;1.20;;;;;;;;;;5015599;28;20525;-77
2023/05/29 06:39:58;;;;;;;1.45;1.35;;;;;;;;;;5015166;28;20789;-77
2023/05/29 06:42:25;;;;;;;1.45;1.33;;;;;;;;;;5015388;28;20129;-77
2023/05/29 06:44:57;;;;;;;1.85;1.40;;;;;;;;;;4999760;28;20037;-76
2023/05/29 06:47:23;;;;;;;2.50;1.20;;;;;;;;;;5015274;28;20041;-76
2023/05/29 06:49:50;;;;;;;4.07;1.80;;;;;;;;;;5014925;28;20053;-76
2023/05/29 06:52:16;;;;;;;1.38;1.38;;;;;;;;;;4998710;28;20136;-76
2023/05/29 06:55:05;;;;;;;4.38;1.73;;;;;;;;;;5031297;28;20041;-76
2023/05/29 06:57:33;;;;;;;1.67;1.27;;;;;;;;;;5014973;28;20142;-76
2023/05/29 07:00:00;;;;;;;1.88;1.50;;;;;;;;;;5031602;28;20107;-76
2023/05/29 07:02:32;;;;;;;2.35;1.60;;;;;;;;;;4999780;28;20033;-76
2023/05/29 07:04:58;;;;;;;1.50;1.40;;;;;;;;;;4982244;28;20132;-76
2023/05/29 07:07:25;;;;;;;2.10;1.70;;;;;;;;;;5015702;28;20416;-76
2023/05/29 07:09:51;;;;;;;5.60;1.67;;;;;;;;;;5014982;28;20065;-76
2023/05/29 07:12:17;;;;;;;2.00;1.50;;;;;;;;;;5014833;28;20076;-76
2023/05/29 07:14:44;;;;;;;2.53;1.52;;;;;;;;;;5013282;28;20041;-76
2023/05/29 07:17:10;;;;;;;2.53;1.85;;;;;;;;;;5032516;28;20037;-76
2023/05/29 07:19:37;;;;;;;1.60;1.50;;;;;;;;;;4998303;28;20049;-76
2023/05/29 07:22:07;;;;;;;1.50;1.25;;;;;;;;;;5015300;28;20063;-76
2023/05/29 07:24:34;;;;;;;1.73;1.55;;;;;;;;;;5025106;28;20068;-76
2023/05/29 07:27:02;;;;;;;3.97;1.58;;;;;;;;;;5025572;28;20093;-76
2023/05/29 07:29:28;;;;;;;5.40;1.80;;;;;;;;;;5006661;28;20080;-77
2023/05/29 07:31:55;;;;;;;2.92;1.65;;;;;;;;;;4983325;28;20394;-77
2023/05/29 07:34:22;;;;;;;4.13;1.70;;;;;;;;;;5015344;28;20053;-77
2023/05/29 07:37:02;;;;;;;1.60;1.50;;;;;;;;;;5014413;28;20121;-76
2023/05/29 07:39:29;;;;;;;1.48;1.38;;;;;;;;;;4998201;28;20045;-77
2023/05/29 07:41:57;;;;;;;1.63;1.35;;;;;;;;;;5013706;28;20041;-77
2023/05/29 07:44:23;;;;;;;4.85;1.38;;;;;;;;;;5014504;28;20130;-77
2023/05/29 07:46:50;;;;;;;9.82;1.73;;;;;;;;;;4997714;28;20106;-77
2023/05/29 07:49:30;;;;;;;2.15;1.40;;;;;;;;;;5014213;28;20053;-77
2023/05/29 07:51:56;;;;;;;2.53;1.50;;;;;;;;;;5013887;28;20088;-77
2023/05/29 07:54:23;;;;;;;2.72;1.50;;;;;;;;;;5014224;28;20037;-78
2023/05/29 07:56:49;;;;;;;1.58;1.33;;;;;;;;;;4997650;28;20413;-76
2023/05/29 07:59:17;;;;;;;4.32;1.40;;;;;;;;;;5014018;28;20055;-77
2023/05/29 08:01:44;;;;;;;5.15;1.40;;;;;;;;;;5013821;28;20041;-77
2023/05/29 08:04:22;;;;;;;1.30;1.20;;;;;;;;;;4999521;28;20075;-77
2023/05/29 08:06:48;;;;;;;1.52;1.40;;;;;;;;;;5013629;28;20715;-77
2023/05/29 08:09:14;;;;;;;1.30;1.20;;;;;;;;;;5030266;28;20464;-76
2023/05/29 08:11:40;;;;;;;2.47;1.45;;;;;;;;;;4981070;28;20049;-77
2023/05/29 08:14:07;;;;;;;4.05;1.75;;;;;;;;;;5015018;28;20509;-77
2023/05/29 08:16:33;;;;;;;1.95;1.45;;;;;;;;;;5016191;28;20081;-77
2023/05/29 08:18:59;;;;;;;3.95;1.35;;;;;;;;;;4997416;28;20061;-77
2023/05/29 08:21:26;;;;;;;3.13;1.45;;;;;;;;;;5013607;28;20115;-77
2023/05/29 08:23:52;;;;;;;1.85;1.58;;;;;;;;;;4997289;28;20517;-78
2023/05/29 08:26:21;;;;;;;1.73;1.63;;;;;;;;;;4996923;28;20057;-77
2023/05/29 08:28:47;;;;;;;2.20;1.75;;;;;;;;;;5013380;28;20502;-77
2023/05/29 08:31:13;;;;;;;1.83;1.70;;;;;;;;;;5031109;28;20104;-78
2023/05/29 08:33:39;;;;;;;1.83;1.73;;;;;;;;;;5031285;28;20045;-77
2023/05/29 08:36:06;;;;;;;1.88;1.67;;;;;;;;;;4997287;28;20041;-77
2023/05/29 08:38:32;;;;;;;9.10;1.70;;;;;;;;;;5013259;28;20122;-77
2023/05/29 08:40:58;;;;;;;3.40;1.50;;;;;;;;;;5012918;28;20041;-77
2023/05/29 08:43:24;;;;;;;2.53;1.35;;;;;;;;;;5030779;28;20127;-77
2023/05/29 08:45:54;;;;;;;2.35;1.65;;;;;;;;;;5030346;28;20041;-77
2023/05/29 08:48:23;;;;;;;2.00;1.90;;;;;;;;;;5030430;28;20033;-77
2023/05/29 08:50:51;;;;;;;7.18;1.60;;;;;;;;;;4996068;28;20063;-77
2023/05/29 08:53:18;;;;;;;3.28;1.55;;;;;;;;;;5012868;28;20057;-77
2023/05/29 08:55:46;;;;;;;2.30;1.65;;;;;;;;;;4996158;28;20064;-77
2023/05/29 08:58:13;;;;;;;2.28;1.38;;;;;;;;;;5030376;28;20482;-77
2023/05/29 09:00:40;;;;;;;4.13;1.58;;;;;;;;;;4980150;28;20047;-77
2023/05/29 09:03:06;;;;;;;2.25;1.60;;;;;;;;;;4996172;28;20522;-77
2023/05/29 09:05:33;;;;;;;2.78;1.50;;;;;;;;;;5012628;28;20069;-77
2023/05/29 09:07:59;;;;;;;5.50;1.90;;;;;;;;;;5029883;28;20084;-77
2023/05/29 09:10:26;;;;;;;1.88;1.70;;;;;;;;;;5012753;28;20406;-77
2023/05/29 09:12:52;;;;;;;4.40;1.85;;;;;;;;;;5012572;28;20037;-77
2023/05/29 09:15:21;;;;;;;2.17;2.00;;;;;;;;;;5012697;28;20050;-76
2023/05/29 09:17:51;;;;;;;3.28;1.80;;;;;;;;;;5012332;28;20513;-77
2023/05/29 09:20:18;;;;;;;1.17;1.08;;;;;;;;;;5030687;28;20104;-77
2023/05/29 09:22:54;;;;;;;1.65;1.55;;;;;;;;;;4996694;28;20046;-77
2023/05/29 09:25:32;;;;;;;1.67;1.58;;;;;;;;;;5031235;28;20399;-76
2023/05/29 09:27:59;;;;;;;1.67;1.52;;;;;;;;;;5030784;28;20046;-76
2023/05/29 09:30:32;;;;;;;2.75;2.03;;;;;;;;;;5031210;28;20144;-77
2023/05/29 09:32:59;;;;;;;1.63;1.52;;;;;;;;;;5031464;28;20038;-76
2023/05/29 09:35:24;;;;;;;3.60;1.58;;;;;;;;;;5041588;28;20048;-76
2023/05/29 09:37:53;;;;;;;3.03;1.70;;;;;;;;;;5037987;28;20033;-76
2023/05/29 09:40:19;;;;;;;3.97;1.80;;;;;;;;;;5018153;28;20045;-76
2023/05/29 09:42:48;;;;;;;3.80;1.58;;;;;;;;;;5030760;28;20118;-76
2023/05/29 09:45:16;;;;;;;5.32;1.55;;;;;;;;;;4998197;28;20051;-76
2023/05/29 09:47:42;;;;;;;7.35;1.70;;;;;;;;;;5030033;28;20038;-77
2023/05/29 09:50:15;;;;;;;2.80;1.52;;;;;;;;;;5028527;28;20525;-77
2023/05/29 09:52:41;;;;;;;6.78;1.40;;;;;;;;;;5012627;28;20044;-77
2023/05/29 09:55:07;;;;;;;2.60;1.58;;;;;;;;;;5012119;28;20049;-77
2023/05/29 09:57:33;;;;;;;2.33;1.40;;;;;;;;;;5005317;28;20510;-76
2023/05/29 09:59:59;;;;;;;1.27;1.27;;;;;;;;;;4994235;28;20060;-76
2023/05/29 10:02:25;;;;;;;2.00;1.33;;;;;;;;;;4995189;28;20075;-77
2023/05/29 10:04:51;;;;;;;1.45;1.33;;;;;;;;;;4992556;28;20041;-77
2023/05/29 10:07:17;;;;;;;1.75;1.65;;;;;;;;;;5009971;28;20704;-77
2023/05/29 10:09:44;;;;;;;2.83;1.50;;;;;;;;;;4992398;28;20058;-76
2023/05/29 10:12:11;;;;;;;1.70;1.60;;;;;;;;;;5009694;28;20034;-77
2023/05/29 10:14:37;;;;;;;1.85;1.75;;;;;;;;;;5009853;28;20065;-76
2023/05/29 10:17:06;;;;;;;2.85;1.73;;;;;;;;;;4992203;28;20040;-76
2023/05/29 10:19:32;;;;;;;1.88;1.70;;;;;;;;;;4976643;28;20052;-76
2023/05/29 10:22:00;;;;;;;1.80;1.70;;;;;;;;;;4992177;28;20034;-77
2023/05/29 10:24:26;;;;;;;2.00;1.90;;;;;;;;;;4992731;28;20104;-77
2023/05/29 10:26:52;;;;;;;1.63;1.60;;;;;;;;;;5009664;28;20505;-76
2023/05/29 10:29:37;;;;;;;2.33;2.05;;;;;;;;;;4992418;28;20125;-76
2023/05/29 10:32:12;;;;;;;1.52;1.42;;;;;;;;;;5009608;28;20136;-76
2023/05/29 10:34:43;;;;;;;1.63;1.52;;;;;;;;;;5008730;28;20041;-77
2023/05/29 10:37:14;;;;;;;1.45;1.45;;;;;;;;;;4992052;28;20052;-76
2023/05/29 10:39:40;;;;;;;4.97;1.50;;;;;;;;;;4992427;28;20046;-76
2023/05/29 10:42:24;;;;;;;3.60;1.70;;;;;;;;;;5009159;28;20041;-76
2023/05/29 10:44:53;;;;;;;4.03;1.92;;;;;;;;;;5009560;28;20580;-76
2023/05/29 10:47:22;;;;;;;4.70;1.90;;;;;;;;;;4975819;28;20077;-76
2023/05/29 10:49:49;;;;;;;3.80;1.90;;;;;;;;;;5012406;28;20060;-77
2023/05/29 10:52:15;;;;;;;3.28;1.55;;;;;;;;;;5013493;28;20033;-76
2023/05/29 10:54:51;;;;;;;7.50;1.90;;;;;;;;;;4995799;28;20050;-76
2023/05/29 10:57:17;;;;;;;3.00;1.65;;;;;;;;;;4995269;28;20072;-77
2023/05/29 10:59:44;;;;;;;1.75;1.50;;;;;;;;;;5013222;28;20064;-77
2023/05/29 11:02:10;;;;;;;5.47;1.50;;;;;;;;;;4995008;28;20045;-76
2023/05/29 11:04:36;;;;;;;1.60;1.50;;;;;;;;;;5013055;28;20042;-76
2023/05/29 11:07:06;;;;;;;1.83;1.48;;;;;;;;;;5012615;28;20041;-76
2023/05/29 11:09:36;;;;;;;1.50;1.40;;;;;;;;;;4996080;28;20049;-77
2023/05/29 11:12:35;;;;;;;1.83;1.73;;;;;;;;;;5012467;28;20139;-77
2023/05/29 11:15:07;;;;;;;3.17;1.50;;;;;;;;;;4996914;28;20128;-77
2023/05/29 11:17:37;;;;;;;1.77;1.67;;;;;;;;;;5011138;28;20034;-76
2023/05/29 11:20:07;;;;;;;1.75;1.40;;;;;;;;;;5012085;28;20184;-76
2023/05/29 11:22:40;;;;;;;1.90;1.80;;;;;;;;;;4995045;28;20124;-76
2023/05/29 11:25:06;;;;;;;1.80;1.50;;;;;;;;;;4978707;28;20107;-76
2023/05/29 11:27:32;;;;;;;1.70;1.60;;;;;;;;;;4994908;28;20071;-76
2023/05/29 11:29:58;;;;;;;2.15;1.80;;;;;;;;;;4994616;28;20100;-77
2023/05/29 11:32:25;;;;;;;2.25;1.40;;;;;;;;;;5012329;28;20038;-77
2023/05/29 11:34:51;;;;;;;2.85;1.58;;;;;;;;;;5012396;28;20053;-76
2023/05/29 11:37:17;;;;;;;1.60;1.60;;;;;;;;;;4994589;28;20487;-77
2023/05/29 11:39:43;;;;;;;4.90;2.30;;;;;;;;;;5012418;28;20050;-76
2023/05/29 11:42:09;;;;;;;1.83;1.70;;;;;;;;;;5012285;28;20041;-76
2023/05/29 11:44:35;;;;;;;2.08;1.88;;;;;;;;;;5013744;28;20082;-76
2023/05/29 11:47:04;;;;;;;1.90;1.80;;;;;;;;;;4996859;28;20038;-77
2023/05/29 11:49:31;;;;;;;3.22;1.88;;;;;;;;;;4978748;28;20058;-76
2023/05/29 11:52:10;;;;;;;1.85;1.65;;;;;;;;;;4994345;28;20038;-77
2023/05/29 11:54:36;;;;;;;5.63;2.22;;;;;;;;;;4994510;28;20100;-77
2023/05/29 11:57:02;;;;;;;2.65;1.80;;;;;;;;;;5014015;28;20041;-76
2023/05/29 11:59:29;;;;;;;3.28;1.70;;;;;;;;;;5031425;28;20041;-76
2023/05/29 12:01:55;;;;;;;1.83;1.70;;;;;;;;;;5029515;28;20072;-75
2023/05/29 12:04:21;;;;;;;1.88;1.70;;;;;;;;;;4997598;28;20461;-76
2023/05/29 12:06:47;;;;;;;1.70;1.60;;;;;;;;;;5013844;28;20075;-76
2023/05/29 12:09:34;;;;;;;1.80;1.70;;;;;;;;;;4997436;28;20070;-76
2023/05/29 12:12:01;;;;;;;5.03;1.83;;;;;;;;;;5029927;28;20053;-77
2023/05/29 12:14:27;;;;;;;2.88;2.03;;;;;;;;;;5031375;28;20041;-76
2023/05/29 12:16:53;;;;;;;2.00;1.90;;;;;;;;;;5031473;28;20037;-76
2023/05/29 12:19:19;;;;;;;3.78;1.92;;;;;;;;;;5013419;28;20045;-76
2023/05/29 12:21:47;;;;;;;2.83;2.10;;;;;;;;;;5013716;28;20036;-76
2023/05/29 12:24:13;;;;;;;2.22;1.90;;;;;;;;;;4997444;28;20453;-76
2023/05/29 12:26:40;;;;;;;3.63;1.70;;;;;;;;;;5014647;28;20042;-76
2023/05/29 12:29:06;;;;;;;1.77;1.67;;;;;;;;;;5014929;28;20049;-76
2023/05/29 12:31:32;;;;;;;1.95;1.70;;;;;;;;;;5022117;28;20045;-75
2023/05/29 12:33:59;;;;;;;2.63;1.85;;;;;;;;;;5042482;28;20046;-76
2023/05/29 12:36:25;;;;;;;2.08;1.65;;;;;;;;;;5038011;28;20041;-76
2023/05/29 12:38:54;;;;;;;1.73;1.63;;;;;;;;;;5033828;28;20111;-77
2023/05/29 12:41:24;;;;;;;1.90;1.80;;;;;;;;;;4997611;28;20065;-76
2023/05/29 12:43:50;;;;;;;1.85;1.75;;;;;;;;;;5013443;28;20214;-76
2023/05/29 12:46:16;;;;;;;1.42;1.33;;;;;;;;;;5012567;28;20064;-76
2023/05/29 12:48:42;;;;;;;2.05;1.50;;;;;;;;;;5013368;28;20528;-77
2023/05/29 12:51:08;;;;;;;1.95;1.85;;;;;;;;;;5030354;28;20076;-76
2023/05/29 12:53:34;;;;;;;1.40;1.40;;;;;;;;;;5030586;28;20045;-76
2023/05/29 12:56:01;;;;;;;2.40;1.88;;;;;;;;;;5030246;28;20045;-75
2023/05/29 12:58:28;;;;;;;5.15;1.80;;;;;;;;;;4998496;28;20061;-77
2023/05/29 13:00:57;;;;;;;2.13;2.00;;;;;;;;;;4977430;28;20064;-76
2023/05/29 13:03:25;;;;;;;3.17;1.80;;;;;;;;;;5010698;28;20203;-76
2023/05/29 13:05:52;;;;;;;3.15;1.60;;;;;;;;;;4993349;28;20189;-76
2023/05/29 13:08:19;;;;;;;2.28;1.90;;;;;;;;;;4992643;28;20045;-77
2023/05/29 13:10:45;;;;;;;1.80;1.70;;;;;;;;;;4993055;28;20111;-77
2023/05/29 13:13:12;;;;;;;2.67;1.60;;;;;;;;;;5008974;28;20037;-76
2023/05/29 13:15:38;;;;;;;2.97;1.60;;;;;;;;;;5009469;28;20050;-76
2023/05/29 13:18:04;;;;;;;3.47;1.85;;;;;;;;;;4976782;28;20041;-77
2023/05/29 13:20:31;;;;;;;2.03;1.92;;;;;;;;;;4993253;28;20077;-77
2023/05/29 13:22:57;;;;;;;3.58;1.80;;;;;;;;;;4977509;28;20044;-76
2023/05/29 13:25:25;;;;;;;2.33;1.60;;;;;;;;;;4978364;28;20104;-76
2023/05/29 13:27:52;;;;;;;2.25;2.05;;;;;;;;;;5001526;28;20043;-76
2023/05/29 13:30:18;;;;;;;3.75;2.22;;;;;;;;;;5022340;28;20081;-76
2023/05/29 13:32:47;;;;;;;7.90;1.90;;;;;;;;;;5018240;28;20102;-76
2023/05/29 13:35:13;;;;;;;1.92;1.80;;;;;;;;;;4977970;28;20069;-77
2023/05/29 13:37:39;;;;;;;3.55;1.70;;;;;;;;;;4993042;28;20502;-77
2023/05/29 13:40:08;;;;;;;4.45;1.60;;;;;;;;;;5010127;28;20045;-76
2023/05/29 13:42:34;;;;;;;1.30;1.30;;;;;;;;;;4976757;28;20034;-77
2023/05/29 13:45:01;;;;;;;1.35;1.35;;;;;;;;;;4992327;28;20096;-77
2023/05/29 13:47:32;;;;;;;2.17;1.80;;;;;;;;;;5009973;28;20128;-76
2023/05/29 13:49:58;;;;;;;3.08;1.80;;;;;;;;;;5010602;28;20049;-76
2023/05/29 13:52:25;;;;;;;1.83;1.58;;;;;;;;;;4992293;28;20050;-76
2023/05/29 13:54:51;;;;;;;5.90;1.92;;;;;;;;;;5010511;28;20159;-75
2023/05/29 13:57:17;;;;;;;2.33;1.75;;;;;;;;;;4991911;28;20050;-76
2023/05/29 13:59:49;;;;;;;1.63;1.52;;;;;;;;;;5008918;28;20041;-77
2023/05/29 14:02:16;;;;;;;1.80;1.70;;;;;;;;;;5009517;28;20112;-77
2023/05/29 14:04:43;;;;;;;3.83;1.90;;;;;;;;;;4960312;28;20505;-76
2023/05/29 14:07:09;;;;;;;3.03;2.05;;;;;;;;;;4992053;28;20370;-75
2023/05/29 14:09:35;;;;;;;2.38;1.88;;;;;;;;;;5009830;28;20064;-75
2023/05/29 14:12:02;;;;;;;5.97;1.50;;;;;;;;;;5009870;28;20030;-76
2023/05/29 14:14:28;;;;;;;3.85;1.80;;;;;;;;;;4992083;28;20052;-75
2023/05/29 14:16:55;;;;;;;1.98;1.88;;;;;;;;;;4992164;28;20046;-76
2023/05/29 14:19:21;;;;;;;1.90;1.80;;;;;;;;;;4991923;28;20466;-75
2023/05/29 14:21:47;;;;;;;3.22;2.03;;;;;;;;;;5009669;28;20038;-77
2023/05/29 14:24:15;;;;;;;3.83;2.05;;;;;;;;;;4993845;28;20099;-76
2023/05/29 14:26:43;;;;;;;1.83;1.73;;;;;;;;;;5013380;28;20104;-77
2023/05/29 14:29:11;;;;;;;2.90;1.98;;;;;;;;;;5013282;28;20056;-77
2023/05/29 14:31:37;;;;;;;1.85;1.70;;;;;;;;;;5013514;28;20046;-76
2023/05/29 14:34:03;;;;;;;2.55;2.17;;;;;;;;;;5013426;28;20052;-76
2023/05/29 14:36:29;;;;;;;3.17;2.80;;;;;;;;;;4979667;28;20088;-76
2023/05/29 14:38:55;;;;;;;4.13;2.15;;;;;;;;;;5013376;28;20042;-76
2023/05/29 14:41:21;;;;;;;2.40;2.30;;;;;;;;;;5012919;28;20038;-76
2023/05/29 14:43:47;;;;;;;3.65;1.77;;;;;;;;;;4979279;28;20112;-76
2023/05/29 14:46:13;;;;;;;1.70;1.60;;;;;;;;;;4995221;28;20537;-76